createdAt,value
2019-05-06T00:00:29.549Z,101316.61
2019-05-06T00:02:59.543Z,101310.15
2019-05-06T00:05:29.527Z,101302.70
2019-05-06T00:07:59.371Z,101301.80
2019-05-06T00:10:30.963Z,101296.81
2019-05-06T00:13:01.716Z,101299.30
2019-05-06T00:15:34.289Z,101297.83
2019-05-06T00:18:05.185Z,101298.52
2019-05-06T00:20:35.167Z,101295.67
2019-05-06T00:23:20.026Z,101295.03
2019-05-06T00:26:04.047Z,101294.31
2019-05-06T00:28:44.680Z,101291.23
2019-05-06T00:31:17.111Z,101294.93
2019-05-06T00:33:47.187Z,101291.15
2019-05-06T00:36:17.166Z,101286.66
2019-05-06T00:38:50.697Z,101293.10
2019-05-06T00:41:25.197Z,101292.72
2019-05-06T00:43:54.965Z,101292.36
2019-05-06T00:46:24.819Z,101288.59
2019-05-06T00:48:54.632Z,101289.47
2019-05-06T00:51:25.002Z,101293.01
2019-05-06T00:54:00.135Z,101279.22
2019-05-06T00:56:30.086Z,101284.16
2019-05-06T00:59:00.084Z,101282.38
2019-05-06T01:01:30.224Z,101284.16
2019-05-06T01:04:00.149Z,101286.61
2019-05-06T01:06:30.296Z,101286.42
2019-05-06T01:09:00.396Z,101284.65
2019-05-06T01:11:31.798Z,101291.57
2019-05-06T01:14:06.833Z,101282.66
2019-05-06T01:16:36.852Z,101292.45
2019-05-06T01:19:07.057Z,101289.73
2019-05-06T01:21:37.262Z,101281.56
2019-05-06T01:24:07.725Z,101280.64
2019-05-06T01:26:37.906Z,101283.86
2019-05-06T01:29:07.879Z,101284.73
2019-05-06T01:31:42.830Z,101288.28
2019-05-06T01:34:09.501Z,101290.41
2019-05-06T01:36:39.853Z,101288.23
2019-05-06T01:39:35.469Z,101288.73
2019-05-06T01:42:20.232Z,101285.33
2019-05-06T01:44:50.030Z,101283.88
2019-05-06T01:47:19.854Z,101288.66
2019-05-06T01:49:49.628Z,101288.66
2019-05-06T01:52:19.579Z,101293.05
2019-05-06T01:54:49.475Z,101287.41
2019-05-06T01:57:19.331Z,101287.41
2019-05-06T01:59:49.939Z,101285.48
2019-05-06T02:02:20.228Z,101284.27
2019-05-06T02:04:50.109Z,101281.23
2019-05-06T02:07:20.109Z,101281.23
2019-05-06T02:09:50.997Z,101265.91
2019-05-06T02:12:20.770Z,101278.99
2019-05-06T02:14:50.577Z,101286.31
2019-05-06T02:17:20.679Z,101280.92
2019-05-06T02:19:50.728Z,101274.31
2019-05-06T02:22:26.400Z,101277.87
2019-05-06T02:25:15.347Z,101287.16
2019-05-06T02:27:45.588Z,101283.07
2019-05-06T02:30:40.935Z,101281.83
2019-05-06T02:33:16.956Z,101280.23
2019-05-06T02:36:00.580Z,101275.94
2019-05-06T02:38:41.201Z,101275.94
2019-05-06T02:41:04.587Z,101284.01
2019-05-06T02:43:34.863Z,101289.92
2019-05-06T02:46:04.985Z,101289.92
2019-05-06T02:48:54.476Z,101285.33
2019-05-06T02:51:26.710Z,101285.33
2019-05-06T02:53:56.877Z,101283.00
2019-05-06T02:56:26.745Z,101285.88
2019-05-06T02:58:56.634Z,101281.75
2019-05-06T03:01:26.598Z,101281.75
2019-05-06T03:03:56.565Z,101272.86
2019-05-06T03:06:26.937Z,101275.52
2019-05-06T03:08:58.039Z,101269.89
2019-05-06T03:11:28.226Z,101267.23
2019-05-06T03:13:58.034Z,101267.23
2019-05-06T03:16:27.826Z,101265.88
2019-05-06T03:18:58.168Z,101265.88
2019-05-06T03:22:03.472Z,101277.34
2019-05-06T03:24:43.382Z,101265.07
2019-05-06T03:27:14.338Z,101265.63
2019-05-06T03:29:44.699Z,101260.83
2019-05-06T03:32:16.498Z,101249.41
2019-05-06T03:35:09.020Z,101249.41
2019-05-06T03:37:18.381Z,101259.92
2019-05-06T03:39:52.663Z,101258.09
2019-05-06T03:42:22.959Z,101259.90
2019-05-06T03:44:56.893Z,101256.34
2019-05-06T03:47:34.826Z,101250.44
2019-05-06T03:50:07.756Z,101264.91
2019-05-06T03:52:37.525Z,101252.27
2019-05-06T03:55:07.546Z,101259.44
2019-05-06T03:57:38.585Z,101261.77
2019-05-06T04:00:13.010Z,101258.95
2019-05-06T04:02:43.476Z,101258.95
2019-05-06T04:05:14.968Z,101258.24
2019-05-06T04:07:46.625Z,101259.72
2019-05-06T04:10:16.752Z,101260.50
2019-05-06T04:12:48.533Z,101260.50
2019-05-06T04:15:19.022Z,101250.87
2019-05-06T04:17:56.122Z,101262.68
2019-05-06T04:20:47.906Z,101265.36
2019-05-06T04:23:43.497Z,101265.36
2019-05-06T04:26:24.127Z,101271.78
2019-05-06T04:28:54.849Z,101266.33
2019-05-06T04:31:25.417Z,101265.44
2019-05-06T04:34:08.815Z,101274.77
2019-05-06T04:36:26.976Z,101272.84
2019-05-06T04:38:56.966Z,101278.38
2019-05-06T04:41:27.075Z,101269.69
2019-05-06T04:43:57.388Z,101269.69
2019-05-06T04:46:27.637Z,101270.06
2019-05-06T04:48:58.621Z,101271.89
2019-05-06T04:51:28.898Z,101274.39
2019-05-06T04:53:59.025Z,101270.66
2019-05-06T04:56:29.069Z,101274.62
2019-05-06T04:58:58.944Z,101271.05
2019-05-06T05:01:29.606Z,101275.36
2019-05-06T05:03:59.795Z,101285.54
2019-05-06T05:06:32.656Z,101280.02
2019-05-06T05:09:02.888Z,101285.55
2019-05-06T05:11:53.249Z,101284.52
2019-05-06T05:14:42.465Z,101283.95
2019-05-06T05:17:30.401Z,101283.09
2019-05-06T05:20:02.115Z,101281.84
2019-05-06T05:22:33.597Z,101279.86
2019-05-06T05:25:05.009Z,101282.92
2019-05-06T05:27:35.558Z,101289.17
2019-05-06T05:30:05.885Z,101291.33
2019-05-06T05:32:37.574Z,101290.81
2019-05-06T05:35:07.919Z,101296.20
2019-05-06T05:37:38.123Z,101264.71
2019-05-06T05:40:08.708Z,101301.19
2019-05-06T05:43:02.917Z,101302.27
2019-05-06T05:45:33.088Z,101305.48
2019-05-06T05:48:06.762Z,101301.02
2019-05-06T05:50:39.314Z,101300.84
2019-05-06T05:53:09.129Z,101294.92
2019-05-06T05:55:39.018Z,101293.11
2019-05-06T05:58:09.301Z,101295.46
2019-05-06T06:00:39.600Z,101297.77
2019-05-06T06:03:09.491Z,101302.95
2019-05-06T06:05:39.267Z,101305.30
2019-05-06T06:08:09.246Z,101299.19
2019-05-06T06:10:53.969Z,101292.33
2019-05-06T06:13:24.415Z,101300.73
2019-05-06T06:16:12.991Z,101297.84
2019-05-06T06:18:52.447Z,101291.73
2019-05-06T06:21:32.052Z,101297.12
2019-05-06T06:24:07.261Z,101300.48
2019-05-06T06:26:37.456Z,101302.59
2019-05-06T06:29:07.629Z,101295.63
2019-05-06T06:31:46.518Z,101303.97
2019-05-06T06:34:22.348Z,101302.98
2019-05-06T06:37:10.193Z,101302.02
2019-05-06T06:39:42.745Z,101300.25
2019-05-06T06:42:13.682Z,101295.45
2019-05-06T06:44:43.926Z,101295.91
2019-05-06T06:47:14.123Z,101295.30
2019-05-06T06:49:44.807Z,101295.91
2019-05-06T06:52:15.176Z,101294.19
2019-05-06T06:54:45.428Z,101295.25
2019-05-06T06:57:33.926Z,101290.69
2019-05-06T07:00:28.444Z,101289.11
2019-05-06T07:03:02.863Z,101287.81
2019-05-06T07:05:42.374Z,101276.33
2019-05-06T07:08:13.223Z,101282.96
2019-05-06T07:10:43.408Z,101282.09
2019-05-06T07:13:15.345Z,101269.69
2019-05-06T07:15:45.638Z,101272.31
2019-05-06T07:18:15.603Z,101270.67
2019-05-06T07:21:06.979Z,101271.33
2019-05-06T07:23:37.569Z,101270.73
2019-05-06T07:26:08.335Z,101273.45
2019-05-06T07:28:38.300Z,101270.63
2019-05-06T07:31:20.730Z,101266.34
2019-05-06T07:33:42.885Z,101272.59
2019-05-06T07:36:13.064Z,101270.58
2019-05-06T07:38:52.401Z,101270.55
2019-05-06T07:41:45.785Z,101265.44
2019-05-06T07:44:29.905Z,101269.45
2019-05-06T07:47:19.126Z,101269.84
2019-05-06T07:49:49.141Z,101270.02
2019-05-06T07:52:19.214Z,101271.08
2019-05-06T07:54:49.041Z,101266.23
2019-05-06T07:57:19.176Z,101264.81
2019-05-06T07:59:49.071Z,101271.89
2019-05-06T08:02:19.317Z,101276.51
2019-05-06T08:04:49.857Z,101275.67
2019-05-06T08:07:22.129Z,101279.78
2019-05-06T08:09:52.909Z,101281.58
2019-05-06T08:12:23.368Z,101282.53
2019-05-06T08:14:53.273Z,101268.45
2019-05-06T08:17:28.396Z,101268.88
2019-05-06T08:19:58.274Z,101270.01
2019-05-06T08:23:02.752Z,101268.75
2019-05-06T08:25:44.601Z,101266.94
2019-05-06T08:28:14.436Z,101266.10
2019-05-06T08:30:44.638Z,101265.30
2019-05-06T08:33:14.580Z,101264.57
2019-05-06T08:35:44.396Z,101264.26
2019-05-06T08:38:14.416Z,101265.53
2019-05-06T08:40:44.395Z,101256.12
2019-05-06T08:43:14.304Z,101252.02
2019-05-06T08:45:44.996Z,101253.13
2019-05-06T08:48:14.783Z,101242.02
2019-05-06T08:51:02.721Z,101241.13
2019-05-06T08:54:03.047Z,101241.63
2019-05-06T08:56:33.162Z,101250.17
2019-05-06T08:59:03.258Z,101253.55
2019-05-06T09:01:50.319Z,101245.92
2019-05-06T09:04:22.630Z,101251.18
2019-05-06T09:06:53.389Z,101250.05
2019-05-06T09:09:23.589Z,101251.05
2019-05-06T09:11:53.790Z,101245.01
2019-05-06T09:14:23.976Z,101245.41
2019-05-06T09:16:54.294Z,101240.56
2019-05-06T09:19:24.492Z,101242.77
2019-05-06T09:21:54.396Z,101240.01
2019-05-06T09:24:24.317Z,101236.00
2019-05-06T09:27:06.943Z,101240.66
2019-05-06T09:29:44.456Z,101234.06
2019-05-06T09:32:22.506Z,101237.67
2019-05-06T09:34:54.167Z,101237.85
2019-05-06T09:37:24.381Z,101246.89
2019-05-06T09:39:54.346Z,101234.57
2019-05-06T09:42:24.542Z,101237.50
2019-05-06T09:44:54.676Z,101237.43
2019-05-06T09:47:44.934Z,101233.80
2019-05-06T09:50:17.722Z,101226.89
2019-05-06T09:52:47.892Z,101223.75
2019-05-06T09:55:23.311Z,101233.52
2019-05-06T09:58:03.475Z,101235.57
2019-05-06T10:00:37.902Z,101229.53
2019-05-06T10:03:08.015Z,101231.40
2019-05-06T10:05:38.085Z,101221.55
2019-05-06T10:08:08.161Z,101227.64
2019-05-06T10:10:38.128Z,101225.62
2019-05-06T10:13:08.101Z,101225.87
2019-05-06T10:15:38.046Z,101217.09
2019-05-06T10:18:08.170Z,101213.23
2019-05-06T10:20:44.560Z,101213.18
2019-05-06T10:23:15.289Z,101222.34
2019-05-06T10:25:45.315Z,101223.07
2019-05-06T10:28:54.091Z,101220.63
2019-05-06T10:31:24.008Z,101210.02
2019-05-06T10:34:13.939Z,101217.88
2019-05-06T10:36:53.304Z,101213.77
2019-05-06T10:39:26.150Z,101214.57
2019-05-06T10:42:13.856Z,101223.72
2019-05-06T10:45:09.057Z,101206.21
2019-05-06T10:47:38.950Z,101208.42
2019-05-06T10:50:12.434Z,101214.17
2019-05-06T10:53:02.630Z,101200.12
2019-05-06T10:55:32.607Z,101194.64
2019-05-06T10:58:02.872Z,101190.55
2019-05-06T11:00:33.351Z,101204.42
2019-05-06T11:03:14.447Z,101195.64
2019-05-06T11:05:43.459Z,101198.82
2019-05-06T11:08:13.615Z,101190.77
2019-05-06T11:10:45.329Z,101190.68
2019-05-06T11:13:15.516Z,101188.61
2019-05-06T11:15:45.817Z,101195.91
2019-05-06T11:18:15.765Z,101187.30
2019-05-06T11:20:45.702Z,101184.58
2019-05-06T11:23:15.593Z,101194.20
2019-05-06T11:25:45.451Z,101195.91
2019-05-06T11:28:35.347Z,101196.14
2019-05-06T11:31:24.219Z,101185.27
2019-05-06T11:34:07.253Z,101187.66
2019-05-06T11:36:49.468Z,101188.70
2019-05-06T11:39:19.381Z,101180.67
2019-05-06T11:42:06.395Z,101185.90
2019-05-06T11:44:23.574Z,101175.47
2019-05-06T11:46:52.776Z,101174.58
2019-05-06T11:49:23.439Z,101177.77
2019-05-06T11:51:53.319Z,101176.97
2019-05-06T11:54:24.457Z,101179.53
2019-05-06T11:56:58.405Z,101179.86
2019-05-06T11:59:28.423Z,101173.45
2019-05-06T12:02:03.334Z,101175.27
2019-05-06T12:04:33.404Z,101170.01
2019-05-06T12:07:11.417Z,101169.55
2019-05-06T12:09:36.405Z,101170.48
2019-05-06T12:12:06.629Z,101172.55
2019-05-06T12:14:36.579Z,101168.37
2019-05-06T12:17:06.632Z,101158.48
2019-05-06T12:19:36.741Z,101165.26
2019-05-06T12:22:06.533Z,101170.50
2019-05-06T12:24:36.445Z,101170.00
2019-05-06T12:27:07.186Z,101167.17
2019-05-06T12:29:38.420Z,101162.72
2019-05-06T12:32:34.547Z,101169.81
2019-05-06T12:35:05.292Z,101161.09
2019-05-06T12:37:35.858Z,101160.45
2019-05-06T12:40:06.062Z,101160.34
2019-05-06T12:42:43.407Z,101164.51
2019-05-06T12:45:38.832Z,101161.96
2019-05-06T12:48:26.753Z,101171.38
2019-05-06T12:50:59.916Z,101163.36
2019-05-06T12:53:32.606Z,101159.73
2019-05-06T12:56:03.063Z,101149.66
2019-05-06T12:58:33.421Z,101149.05
2019-05-06T13:01:04.274Z,101141.23
2019-05-06T13:03:35.024Z,101143.67
2019-05-06T13:06:07.749Z,101146.61
2019-05-06T13:08:53.903Z,101142.56
2019-05-06T13:11:09.159Z,101141.98
2019-05-06T13:13:55.576Z,101145.13
2019-05-06T13:16:12.565Z,101138.14
2019-05-06T13:18:47.742Z,101143.61
2019-05-06T13:21:14.802Z,101134.12
2019-05-06T13:23:51.376Z,101131.84
2019-05-06T13:26:22.250Z,101135.39
2019-05-06T13:28:56.965Z,101135.80
2019-05-06T13:31:27.073Z,101142.91
2019-05-06T13:34:10.286Z,101134.04
2019-05-06T13:36:42.609Z,101138.70
2019-05-06T13:39:15.068Z,101142.16
2019-05-06T13:41:44.069Z,101148.99
2019-05-06T13:44:15.833Z,101144.38
2019-05-06T13:46:48.198Z,101147.69
2019-05-06T13:49:46.207Z,101153.02
2019-05-06T13:52:19.810Z,101188.42
2019-05-06T13:54:52.806Z,101198.32
2019-05-06T13:57:22.083Z,101198.32
2019-05-06T13:59:53.250Z,101207.80
2019-05-06T14:02:49.422Z,101203.67
2019-05-06T14:05:19.492Z,101212.88
2019-05-06T14:07:52.526Z,101218.57
2019-05-06T14:10:22.371Z,101226.17
2019-05-06T14:12:53.393Z,101220.30
2019-05-06T14:15:23.473Z,101221.16
2019-05-06T14:17:53.543Z,101222.52
2019-05-06T14:20:24.068Z,101218.73
2019-05-06T14:22:54.064Z,101217.93
2019-05-06T14:25:46.333Z,101220.59
2019-05-06T14:28:32.425Z,101229.59
2019-05-06T14:31:06.341Z,101222.63
2019-05-06T14:33:36.319Z,101229.11
2019-05-06T14:36:06.280Z,101230.58
2019-05-06T14:38:36.104Z,101229.27
2019-05-06T14:41:13.284Z,101228.78
2019-05-06T14:43:43.337Z,101227.41
2019-05-06T14:46:13.509Z,101229.91
2019-05-06T14:48:43.885Z,101228.47
2019-05-06T14:51:14.092Z,101227.23
2019-05-06T14:53:44.197Z,101218.72
2019-05-06T14:56:23.106Z,101220.11
2019-05-06T14:59:07.435Z,101220.39
2019-05-06T15:01:38.988Z,101220.39
2019-05-06T15:04:09.449Z,101220.39
2019-05-06T15:06:39.530Z,101218.62
2019-05-06T15:09:13.131Z,101218.31
2019-05-06T15:11:43.400Z,101219.78
2019-05-06T15:14:13.896Z,101218.56
2019-05-06T15:16:43.886Z,101221.52
2019-05-06T15:19:14.088Z,101215.82
2019-05-06T15:21:43.995Z,101214.38
2019-05-06T15:24:14.663Z,101219.48
2019-05-06T15:26:44.744Z,101220.45
2019-05-06T15:29:14.602Z,101233.31
2019-05-06T15:32:06.360Z,101237.20
2019-05-06T15:34:42.592Z,101233.09
2019-05-06T15:37:27.467Z,101230.70
2019-05-06T15:39:56.560Z,101237.08
2019-05-06T15:42:27.979Z,101236.87
2019-05-06T15:44:57.759Z,101231.33
2019-05-06T15:47:27.997Z,101216.85
2019-05-06T15:49:58.536Z,101228.69
2019-05-06T15:52:28.509Z,101230.06
2019-05-06T15:54:58.888Z,101226.14
2019-05-06T15:57:28.845Z,101231.11
2019-05-06T15:59:58.718Z,101224.34
2019-05-06T16:02:28.940Z,101232.70
2019-05-06T16:04:58.817Z,101222.81
2019-05-06T16:07:31.811Z,101225.42
2019-05-06T16:10:02.461Z,101213.85
2019-05-06T16:12:32.522Z,101207.98
2019-05-06T16:15:02.778Z,101201.41
2019-05-06T16:17:34.165Z,101196.75
2019-05-06T16:20:04.581Z,101197.92
2019-05-06T16:22:34.815Z,101204.64
2019-05-06T16:25:10.639Z,101204.62
2019-05-06T16:27:44.141Z,101197.00
2019-05-06T16:30:17.327Z,101203.15
2019-05-06T16:32:47.192Z,101203.30
2019-05-06T16:35:17.590Z,101203.63
2019-05-06T16:37:47.428Z,101200.91
2019-05-06T16:40:17.929Z,101202.46
2019-05-06T16:42:47.743Z,101202.73
2019-05-06T16:45:18.912Z,101204.55
2019-05-06T16:47:48.960Z,101205.52
2019-05-06T16:50:19.555Z,101202.64
2019-05-06T16:52:49.483Z,101205.09
2019-05-06T16:55:24.437Z,101203.54
2019-05-06T16:58:03.579Z,101212.43
2019-05-06T17:00:35.174Z,101211.84
2019-05-06T17:03:16.862Z,101208.67
2019-05-06T17:06:06.727Z,101214.22
2019-05-06T17:08:39.293Z,101215.94
2019-05-06T17:11:26.132Z,101208.55
2019-05-06T17:13:42.579Z,101208.02
2019-05-06T17:16:14.015Z,101199.52
2019-05-06T17:18:44.177Z,101200.28
2019-05-06T17:21:14.225Z,101191.89
2019-05-06T17:23:44.062Z,101190.97
2019-05-06T17:26:15.400Z,101195.48
2019-05-06T17:28:56.788Z,101191.40
2019-05-06T17:31:34.032Z,101192.25
2019-05-06T17:34:04.895Z,101184.84
2019-05-06T17:36:36.180Z,101199.23
2019-05-06T17:39:09.369Z,101197.20
2019-05-06T17:41:47.626Z,101198.66
2019-05-06T17:44:32.350Z,101192.15
2019-05-06T17:47:12.436Z,101196.03
2019-05-06T17:49:43.023Z,101197.10
2019-05-06T17:52:22.343Z,101196.33
2019-05-06T17:54:52.898Z,101198.36
2019-05-06T17:57:22.964Z,101202.98
2019-05-06T17:59:52.987Z,101205.09
2019-05-06T18:02:24.515Z,101214.35
2019-05-06T18:04:54.345Z,101214.02
2019-05-06T18:07:24.272Z,101218.30
2019-05-06T18:09:54.364Z,101229.41
2019-05-06T18:12:24.244Z,101236.34
2019-05-06T18:14:54.832Z,101241.97
2019-05-06T18:17:24.688Z,101247.11
2019-05-06T18:19:54.540Z,101237.51
2019-05-06T18:22:24.453Z,101245.91
2019-05-06T18:24:54.578Z,101257.13
2019-05-06T18:27:25.688Z,101262.06
2019-05-06T18:30:10.150Z,101259.33
2019-05-06T18:32:27.310Z,101273.36
2019-05-06T18:34:58.491Z,101270.70
2019-05-06T18:37:28.775Z,101277.55
2019-05-06T18:39:58.994Z,101273.95
2019-05-06T18:42:29.091Z,101274.14
2019-05-06T18:44:58.965Z,101268.62
2019-05-06T18:47:28.945Z,101267.17
2019-05-06T18:49:58.871Z,101263.06
2019-05-06T18:52:28.751Z,101267.14
2019-05-06T18:54:58.688Z,101263.72
2019-05-06T18:57:28.641Z,101264.38
2019-05-06T18:59:58.492Z,101255.04
2019-05-06T19:02:28.415Z,101267.57
2019-05-06T19:05:13.064Z,101265.44
2019-05-06T19:07:44.313Z,101263.07
2019-05-06T19:10:23.803Z,101266.66
2019-05-06T19:12:53.826Z,101265.37
2019-05-06T19:15:23.760Z,101256.60
2019-05-06T19:17:58.377Z,101257.28
2019-05-06T19:20:27.757Z,101261.05
2019-05-06T19:23:02.373Z,101261.42
2019-05-06T19:25:34.667Z,101263.43
2019-05-06T19:28:04.903Z,101264.89
2019-05-06T19:30:35.361Z,101271.33
2019-05-06T19:33:06.973Z,101269.53
2019-05-06T19:35:37.363Z,101270.17
2019-05-06T19:38:07.361Z,101265.88
2019-05-06T19:40:37.225Z,101266.80
2019-05-06T19:43:07.305Z,101269.66
2019-05-06T19:45:37.137Z,101270.38
2019-05-06T19:48:07.128Z,101270.17
2019-05-06T19:50:37.292Z,101277.71
2019-05-06T19:53:07.290Z,101271.95
2019-05-06T19:55:37.203Z,101276.08
2019-05-06T19:58:07.071Z,101285.03
2019-05-06T20:00:36.979Z,101275.34
2019-05-06T20:03:06.963Z,101264.98
2019-05-06T20:05:50.228Z,101272.67
2019-05-06T20:08:34.207Z,101274.83
2019-05-06T20:11:16.681Z,101267.66
2019-05-06T20:13:46.657Z,101262.28
2019-05-06T20:16:16.696Z,101269.61
2019-05-06T20:18:46.656Z,101257.45
2019-05-06T20:21:16.466Z,101261.41
2019-05-06T20:23:46.857Z,101259.41
2019-05-06T20:26:18.081Z,101257.26
2019-05-06T20:28:48.336Z,101256.95
2019-05-06T20:31:18.533Z,101252.62
2019-05-06T20:33:48.480Z,101261.21
2019-05-06T20:36:18.293Z,101251.17
2019-05-06T20:38:48.173Z,101248.67
2019-05-06T20:41:18.169Z,101251.70
2019-05-06T20:43:48.285Z,101251.48
2019-05-06T20:46:18.516Z,101250.59
2019-05-06T20:48:48.705Z,101249.14
2019-05-06T20:51:18.747Z,101244.17
2019-05-06T20:53:48.534Z,101244.72
2019-05-06T20:56:18.526Z,101240.97
2019-05-06T20:58:48.421Z,101246.50
2019-05-06T21:01:18.357Z,101247.42
2019-05-06T21:03:48.251Z,101241.48
2019-05-06T21:06:18.446Z,101246.50
2019-05-06T21:08:48.204Z,101248.67
2019-05-06T21:11:27.640Z,101251.02
2019-05-06T21:13:49.834Z,101254.25
2019-05-06T21:16:19.752Z,101248.71
2019-05-06T21:18:51.996Z,101254.82
2019-05-06T21:21:21.637Z,101253.75
2019-05-06T21:23:52.481Z,101254.08
2019-05-06T21:26:22.432Z,101256.22
2019-05-06T21:28:52.362Z,101256.05
2019-05-06T21:31:23.495Z,101258.56
2019-05-06T21:33:53.361Z,101259.11
2019-05-06T21:36:23.379Z,101261.23
2019-05-06T21:38:53.663Z,101255.15
2019-05-06T21:41:23.906Z,101257.89
2019-05-06T21:43:53.866Z,101252.14
2019-05-06T21:46:23.776Z,101258.26
2019-05-06T21:48:53.569Z,101248.95
2019-05-06T21:51:24.302Z,101252.33
2019-05-06T21:53:54.194Z,101251.66
2019-05-06T21:56:24.134Z,101252.53
2019-05-06T21:58:54.477Z,101255.94
2019-05-06T22:01:25.165Z,101251.64
2019-05-06T22:03:55.549Z,101258.63
2019-05-06T22:06:25.540Z,101257.42
2019-05-06T22:08:55.629Z,101258.30
2019-05-06T22:11:26.977Z,101249.90
2019-05-06T22:14:01.425Z,101253.66
2019-05-06T22:16:29.019Z,101255.66
2019-05-06T22:18:59.115Z,101254.42
2019-05-06T22:21:29.068Z,101249.61
2019-05-06T22:24:04.228Z,101254.09
2019-05-06T22:26:32.994Z,101251.24
2019-05-06T22:29:02.965Z,101249.81
2019-05-06T22:31:33.373Z,101253.03
2019-05-06T22:34:03.241Z,101248.03
2019-05-06T22:36:33.567Z,101246.05
2019-05-06T22:39:04.627Z,101245.53
2019-05-06T22:41:35.643Z,101244.27
2019-05-06T22:44:13.701Z,101244.98
2019-05-06T22:46:37.413Z,101238.17
2019-05-06T22:49:07.427Z,101239.97
2019-05-06T22:51:37.350Z,101235.81
2019-05-06T22:54:07.345Z,101234.95
2019-05-06T22:56:37.339Z,101245.83
2019-05-06T22:59:07.197Z,101236.03
2019-05-06T23:02:02.432Z,101236.21
2019-05-06T23:04:33.394Z,101246.60
2019-05-06T23:07:04.847Z,101243.53
2019-05-06T23:09:35.239Z,101243.36
2019-05-06T23:12:05.235Z,101246.05
2019-05-06T23:14:37.258Z,101242.66
2019-05-06T23:17:06.957Z,101241.58
2019-05-06T23:19:36.808Z,101237.84
2019-05-06T23:22:07.361Z,101234.43
2019-05-06T23:24:37.135Z,101231.92
2019-05-06T23:27:07.304Z,101231.05
2019-05-06T23:29:37.103Z,101227.81
2019-05-06T23:32:07.624Z,101228.38
2019-05-06T23:34:37.484Z,101227.47
2019-05-06T23:37:23.884Z,101232.48
2019-05-06T23:40:33.205Z,101232.81
2019-05-06T23:43:38.827Z,101234.44
2019-05-06T23:46:44.765Z,101235.16
2019-05-06T23:49:52.785Z,101241.27
2019-05-06T23:52:59.062Z,101241.09
2019-05-06T23:56:05.158Z,101251.63
2019-05-06T23:58:34.960Z,101248.61
